Time;durP1;ratioP1;P1;durP2;ratioP2;P2;SDS_P1;SDS_P2;PMS_P1;PMS_P2;Temp;Humidity;BMP_temperature;BMP_pressure;BME280_temperature;BME280_humidity;BME280_pressure;Samples;Min_cycle;Max_cycle;Signal;HPM_P1;HPM_P2
2023/10/11 00:01:48;;;;;;;19.60;9.15;;;;;;;15.22;66.59;98496.59;5028409;28;20059;-71
2023/10/11 00:04:26;;;;;;;17.23;8.68;;;;;;;15.14;66.74;98494.41;5072946;28;20032;-70
2023/10/11 00:06:55;;;;;;;24.75;9.63;;;;;;;15.19;66.79;98507.19;5050508;28;20037;-69
2023/10/11 00:09:34;;;;;;;17.30;9.00;;;;;;;15.17;66.60;98499.28;5053655;28;20555;-70
2023/10/11 00:12:04;;;;;;;19.13;9.57;;;;;;;15.19;67.25;98502.56;5056699;28;20412;-71
2023/10/11 00:14:32;;;;;;;16.95;9.75;;;;;;;15.12;67.16;98506.63;5055122;28;20476;-71
2023/10/11 00:16:57;;;;;;;17.80;9.40;;;;;;;14.93;67.37;98478.31;5054585;28;20099;-71
2023/10/11 00:19:28;;;;;;;16.25;9.48;;;;;;;15.06;67.76;98497.63;5051013;28;20053;-69
2023/10/11 00:21:54;;;;;;;18.52;9.35;;;;;;;15.07;67.90;98510.13;5050717;28;20039;-71
2023/10/11 00:24:23;;;;;;;19.90;8.80;;;;;;;15.00;67.85;98493.28;5072380;28;20445;-71
2023/10/11 00:26:49;;;;;;;16.48;8.93;;;;;;;14.94;68.21;98480.75;5053554;28;20123;-71
2023/10/11 00:29:15;;;;;;;22.00;9.35;;;;;;;15.05;68.16;98498.69;5054246;28;20027;-72
2023/10/11 00:31:40;;;;;;;19.10;9.20;;;;;;;15.03;68.21;98481.88;5053396;28;20041;-72
2023/10/11 00:34:10;;;;;;;25.75;9.75;;;;;;;15.04;68.18;98488.13;5054882;28;20029;-73
2023/10/11 00:36:36;;;;;;;18.17;9.25;;;;;;;15.03;68.04;98478.34;5053791;28;20186;-72
2023/10/11 00:39:01;;;;;;;20.10;9.45;;;;;;;14.93;68.09;98465.59;5034026;28;20499;-72
2023/10/11 00:41:30;;;;;;;17.63;9.23;;;;;;;14.93;67.85;98475.63;5050186;28;20105;-72
2023/10/11 00:43:56;;;;;;;16.60;9.15;;;;;;;15.07;68.05;98483.00;5051099;28;20474;-73
2023/10/11 00:46:27;;;;;;;16.92;9.00;;;;;;;15.04;68.05;98483.53;5033342;28;20104;-72
2023/10/11 00:51:39;;;;;;;15.73;8.85;;;;;;;14.90;68.19;98471.53;5058603;28;20041;-71
2023/10/11 00:54:05;;;;;;;18.15;9.45;;;;;;;14.84;68.43;98472.56;5070912;28;20052;-71
2023/10/11 00:56:34;;;;;;;17.35;9.90;;;;;;;14.84;68.69;98478.00;5034503;28;20044;-72
2023/10/11 00:59:10;;;;;;;20.95;10.30;;;;;;;14.73;68.92;98476.34;5045450;28;20021;-72
2023/10/11 01:01:36;;;;;;;23.10;9.77;;;;;;;14.58;68.97;98449.16;5072310;28;20032;-75
2023/10/11 01:04:02;;;;;;;18.05;9.68;;;;;;;14.81;69.02;98483.97;5052602;28;20023;-72
2023/10/11 01:06:28;;;;;;;17.38;9.07;;;;;;;14.79;69.21;98485.31;5053764;28;20123;-71
2023/10/11 01:08:54;;;;;;;16.63;9.80;;;;;;;14.80;68.94;98478.78;5051679;28;20021;-70
2023/10/11 01:11:19;;;;;;;18.98;9.52;;;;;;;14.75;69.01;98467.97;5053694;28;20032;-71
2023/10/11 01:13:51;;;;;;;17.42;9.35;;;;;;;14.85;68.91;98468.81;5036917;28;20024;-70
2023/10/11 01:16:18;;;;;;;19.05;9.32;;;;;;;14.82;68.63;98458.47;5053406;28;20108;-70
2023/10/11 01:18:43;;;;;;;17.90;9.48;;;;;;;14.85;68.72;98466.09;5069646;28;20024;-72
2023/10/11 01:21:10;;;;;;;20.15;9.88;;;;;;;14.89;68.70;98475.31;5072108;28;20465;-72
2023/10/11 01:23:35;;;;;;;21.20;10.15;;;;;;;14.84;68.77;98475.28;5052927;28;20025;-72
2023/10/11 01:26:08;;;;;;;20.75;9.30;;;;;;;14.83;68.57;98476.38;5033909;28;20044;-73
2023/10/11 01:28:35;;;;;;;19.25;8.68;;;;;;;14.77;68.89;98466.59;5033606;28;20048;-71
2023/10/11 01:31:10;;;;;;;16.50;8.77;;;;;;;14.85;68.78;98468.81;5072324;28;20056;-73
2023/10/11 01:33:37;;;;;;;15.95;9.00;;;;;;;14.81;68.56;98456.84;5050764;28;20171;-72
2023/10/11 01:36:17;;;;;;;16.95;8.73;;;;;;;14.86;68.20;98437.09;5042305;28;20033;-73
2023/10/11 01:38:49;;;;;;;18.52;9.25;;;;;;;14.96;68.01;98448.75;5040819;28;20392;-73
2023/10/11 01:41:26;;;;;;;18.90;9.60;;;;;;;14.89;67.68;98431.94;5051613;28;20440;-69
2023/10/11 01:43:52;;;;;;;18.85;9.70;;;;;;;14.93;67.90;98441.19;5050046;28;20029;-69
2023/10/11 01:46:24;;;;;;;19.40;9.30;;;;;;;15.03;67.65;98443.91;5033056;28;20097;-70
2023/10/11 01:48:50;;;;;;;17.05;9.02;;;;;;;15.05;67.85;98452.59;5069621;28;20071;-70
2023/10/11 01:51:20;;;;;;;18.45;8.73;;;;;;;15.01;67.96;98446.06;5053231;28;20067;-70
2023/10/11 01:53:46;;;;;;;19.13;9.57;;;;;;;14.95;67.61;98441.72;5071270;28;20744;-71
2023/10/11 01:56:13;;;;;;;17.88;9.23;;;;;;;15.00;67.87;98443.63;5033726;28;20033;-73
2023/10/11 01:58:42;;;;;;;17.85;8.90;;;;;;;15.00;67.91;98435.50;5028269;28;20488;-72
2023/10/11 02:01:21;;;;;;;17.55;9.10;;;;;;;15.01;67.75;98424.38;5037195;28;20066;-72
2023/10/11 02:03:46;;;;;;;17.00;8.95;;;;;;;15.05;67.83;98440.94;5033886;28;20060;-70
2023/10/11 02:06:13;;;;;;;20.23;9.60;;;;;;;15.06;68.19;98443.38;5070573;28;20114;-71
2023/10/11 02:08:38;;;;;;;22.83;10.20;;;;;;;15.00;68.19;98432.78;5070776;28;20594;-71
2023/10/11 02:11:05;;;;;;;17.55;9.00;;;;;;;14.91;68.51;98418.13;5053422;28;20032;-72
2023/10/11 02:13:33;;;;;;;19.05;9.45;;;;;;;14.86;68.70;98427.06;5033692;28;20040;-72
2023/10/11 02:16:00;;;;;;;16.63;8.95;;;;;;;14.95;68.58;98435.47;5039713;28;20036;-71
2023/10/11 02:18:26;;;;;;;17.67;9.10;;;;;;;14.94;68.88;98434.66;5069258;28;20028;-71
2023/10/11 02:20:55;;;;;;;16.10;8.27;;;;;;;14.93;68.75;98432.22;5033424;28;20105;-71
2023/10/11 02:23:21;;;;;;;16.58;8.88;;;;;;;14.87;69.07;98434.09;5043393;28;20611;-71
2023/10/11 02:25:46;;;;;;;13.65;8.20;;;;;;;14.79;68.76;98417.53;5056878;28;20037;-70
2023/10/11 02:28:14;;;;;;;15.80;8.23;;;;;;;14.85;68.75;98428.13;5049852;28;20041;-71
2023/10/11 02:30:41;;;;;;;17.13;9.30;;;;;;;14.79;68.90;98426.50;5073287;28;20028;-71
2023/10/11 02:33:07;;;;;;;17.50;8.85;;;;;;;14.85;68.67;98438.97;5057161;28;20044;-70
2023/10/11 02:35:49;;;;;;;20.65;8.52;;;;;;;14.80;68.51;98433.53;5053404;28;20029;-72
2023/10/11 02:38:21;;;;;;;18.45;8.90;;;;;;;14.84;68.98;98439.25;5052891;28;20033;-75
2023/10/11 02:40:54;;;;;;;17.38;8.93;;;;;;;14.74;68.88;98423.75;5057344;28;20032;-72
2023/10/11 02:43:20;;;;;;;19.15;8.88;;;;;;;14.85;68.82;98430.84;5073944;28;20131;-72
2023/10/11 02:45:45;;;;;;;23.63;9.15;;;;;;;14.80;68.67;98421.84;5040658;28;20048;-71
2023/10/11 02:48:11;;;;;;;17.20;8.88;;;;;;;14.79;68.95;98417.53;5022969;28;20044;-72
2023/10/11 02:50:36;;;;;;;14.90;8.27;;;;;;;14.85;68.83;98427.31;5056650;28;20560;-72
2023/10/11 02:53:20;;;;;;;17.40;8.73;;;;;;;14.80;68.82;98428.09;5074635;28;20035;-71
2023/10/11 02:55:58;;;;;;;14.27;8.05;;;;;;;14.76;69.25;98427.00;5059172;28;20115;-71
2023/10/11 02:58:29;;;;;;;18.73;8.32;;;;;;;14.63;69.12;98408.53;5074251;28;20050;-71
2023/10/11 03:01:00;;;;;;;19.95;8.50;;;;;;;14.66;69.32;98418.81;5039832;28;20131;-71
2023/10/11 03:03:29;;;;;;;15.82;8.23;;;;;;;14.74;69.15;98428.34;5036574;28;20060;-71
2023/10/11 03:05:57;;;;;;;15.15;9.13;;;;;;;14.71;69.46;98424.28;5037596;28;20111;-71
2023/10/11 03:08:26;;;;;;;16.02;8.50;;;;;;;14.58;69.69;98411.22;5038698;28;20029;-71
2023/10/11 03:11:04;;;;;;;16.27;9.48;;;;;;;14.59;70.07;98420.97;5055038;28;20024;-74
2023/10/11 03:13:31;;;;;;;18.83;8.45;;;;;;;14.53;70.06;98416.63;5056979;28;20033;-73
2023/10/11 03:15:58;;;;;;;16.52;7.75;;;;;;;14.52;70.15;98420.38;5056545;28;20020;-72
2023/10/11 03:18:32;;;;;;;15.05;8.32;;;;;;;14.38;70.30;98397.56;5039361;28;20029;-73
2023/10/11 03:21:08;;;;;;;18.92;8.55;;;;;;;14.46;70.51;98411.44;5074560;28;20049;-71
2023/10/11 03:23:43;;;;;;;17.60;8.30;;;;;;;14.51;70.63;98413.34;5074014;28;20033;-68
2023/10/11 03:26:31;;;;;;;15.30;8.35;;;;;;;14.48;70.62;98413.88;5056423;28;20067;-70
2023/10/11 03:29:05;;;;;;;15.05;8.18;;;;;;;14.40;70.86;98406.22;5057271;28;20038;-70
2023/10/11 03:31:32;;;;;;;21.08;8.77;;;;;;;14.47;70.64;98414.94;5073411;28;20036;-69
2023/10/11 03:33:59;;;;;;;14.70;8.50;;;;;;;14.52;70.43;98414.97;5052043;28;20021;-69
2023/10/11 03:36:32;;;;;;;18.10;8.88;;;;;;;14.50;70.62;98417.13;5049977;28;20040;-70
2023/10/11 03:38:58;;;;;;;19.60;8.43;;;;;;;14.38;70.73;98402.97;5056063;28;20048;-72
2023/10/11 03:41:28;;;;;;;17.38;8.77;;;;;;;14.48;70.23;98419.28;5055816;28;20028;-71
2023/10/11 03:43:54;;;;;;;15.88;8.45;;;;;;;14.49;70.26;98410.09;5056526;28;20040;-72
2023/10/11 03:46:28;;;;;;;16.70;7.97;;;;;;;14.50;70.60;98407.13;5073418;28;20036;-71
2023/10/11 03:49:02;;;;;;;16.98;8.18;;;;;;;14.48;70.42;98403.03;5070512;28;20079;-71
2023/10/11 03:51:28;;;;;;;16.52;8.93;;;;;;;14.50;70.46;98395.44;5039391;28;20055;-71
2023/10/11 03:53:54;;;;;;;17.15;8.95;;;;;;;14.56;70.09;98394.41;5072287;28;20032;-69
2023/10/11 03:56:19;;;;;;;15.85;8.90;;;;;;;14.52;69.76;98394.13;5072783;28;20048;-70
2023/10/11 03:58:45;;;;;;;18.63;9.48;;;;;;;14.40;70.57;98389.97;5055015;28;20017;-70
2023/10/11 04:01:23;;;;;;;16.85;9.30;;;;;;;14.38;70.18;98370.47;5055198;28;20142;-71
2023/10/11 04:03:49;;;;;;;15.90;8.55;;;;;;;14.52;69.86;98387.88;5052375;28;20060;-71
2023/10/11 04:06:15;;;;;;;19.73;9.05;;;;;;;14.45;70.07;98365.63;5051700;28;20032;-72
2023/10/11 04:08:50;;;;;;;22.08;10.02;;;;;;;14.53;69.44;98378.66;5047997;28;20118;-71
2023/10/11 04:11:22;;;;;;;17.67;9.13;;;;;;;14.53;69.88;98384.91;5072400;28;20435;-71
2023/10/11 04:13:49;;;;;;;17.83;8.13;;;;;;;14.39;70.09;98361.25;5053609;28;20037;-71
2023/10/11 04:16:17;;;;;;;18.40;8.20;;;;;;;14.45;70.09;98365.63;5070579;28;20111;-71
2023/10/11 04:18:43;;;;;;;14.00;8.10;;;;;;;14.44;70.27;98366.72;5072017;28;20029;-72
2023/10/11 04:23:35;;;;;;;21.38;8.43;;;;;;;14.46;69.90;98383.53;5054207;28;20064;-72
2023/10/11 04:26:08;;;;;;;13.38;8.05;;;;;;;14.45;70.43;98376.47;5054260;28;20020;-72
2023/10/11 04:28:33;;;;;;;15.18;8.15;;;;;;;14.49;70.87;98391.13;5037388;28;20086;-70
2023/10/11 04:33:59;;;;;;;15.55;8.85;;;;;;;14.47;70.99;98394.09;5047194;28;20052;-73
2023/10/11 04:36:25;;;;;;;16.63;8.32;;;;;;;14.41;71.05;98386.19;5054142;28;20523;-70
2023/10/11 04:38:50;;;;;;;15.57;8.02;;;;;;;14.28;71.17;98356.84;5051360;28;20821;-71
2023/10/11 04:41:18;;;;;;;16.75;8.68;;;;;;;14.50;70.72;98390.03;5071556;28;20027;-71
2023/10/11 04:44:04;;;;;;;19.25;8.45;;;;;;;14.57;70.64;98396.03;5071633;28;20036;-71
2023/10/11 04:46:30;;;;;;;16.33;8.48;;;;;;;14.54;70.88;98396.53;5071474;28;20032;-69
2023/10/11 04:49:09;;;;;;;18.20;8.65;;;;;;;14.63;70.02;98394.16;5068213;28;20448;-70
2023/10/11 04:51:39;;;;;;;15.05;8.40;;;;;;;14.64;69.87;98398.47;5058064;28;20036;-70
2023/10/11 04:54:13;;;;;;;16.75;9.27;;;;;;;14.69;69.60;98393.09;5050133;28;20104;-71
2023/10/11 05:04:33;;;;;;;16.10;8.65;;;;;;;14.72;68.69;98390.69;5046085;28;20090;-72
2023/10/11 05:07:04;;;;;;;20.25;9.35;;;;;;;14.76;68.60;98393.66;5053443;28;20063;-72
2023/10/11 05:09:29;;;;;;;15.65;8.50;;;;;;;14.66;68.68;98374.63;5053742;28;20033;-71
2023/10/11 05:12:07;;;;;;;16.85;8.23;;;;;;;14.81;68.48;98399.91;5053182;28;20535;-71
2023/10/11 05:19:45;;;;;;;15.88;8.80;;;;;;;14.75;68.12;98379.28;5049670;28;20094;-72
2023/10/11 05:52:07;;;;;;;99.18;46.15;;;;;;;15.05;67.98;98387.50;5048445;28;20040;-74
2023/10/11 05:54:36;;;;;;;56.53;27.83;;;;;;;14.97;68.35;98385.31;5036812;28;20411;-73
2023/10/11 05:57:05;;;;;;;32.90;17.25;;;;;;;15.03;68.63;98389.66;5036514;28;20037;-74
2023/10/11 05:59:37;;;;;;;21.88;10.73;;;;;;;15.02;68.60;98393.47;5036423;28;20028;-74
2023/10/11 06:02:07;;;;;;;19.75;9.27;;;;;;;15.02;68.52;98384.50;5036691;28;20052;-74
2023/10/11 06:04:39;;;;;;;18.98;8.88;;;;;;;15.14;68.32;98393.22;5043081;28;20033;-74
2023/10/11 06:07:07;;;;;;;17.85;8.23;;;;;;;15.02;68.24;98366.34;5016015;28;20029;-74
2023/10/11 06:09:39;;;;;;;19.08;8.18;;;;;;;15.19;67.56;98383.16;5052942;28;20108;-77
2023/10/11 06:12:10;;;;;;;17.23;8.18;;;;;;;15.27;67.14;98381.00;5053796;28;20503;-76
2023/10/11 06:14:36;;;;;;;17.60;8.00;;;;;;;15.36;67.11;98390.25;5053295;28;20033;-73
2023/10/11 06:17:05;;;;;;;18.58;8.55;;;;;;;15.39;66.86;98376.13;5051006;28;20027;-74
2023/10/11 06:19:31;;;;;;;13.93;8.00;;;;;;;15.38;66.84;98369.09;5052747;28;20094;-74
2023/10/11 06:21:57;;;;;;;15.82;8.10;;;;;;;15.50;67.05;98394.09;5037059;28;20411;-74
2023/10/11 06:24:23;;;;;;;14.32;8.30;;;;;;;15.57;66.63;98389.19;5055874;28;20511;-74
2023/10/11 06:29:22;;;;;;;17.77;8.50;;;;;;;15.49;66.31;98368.03;5035770;28;20409;-74
2023/10/11 06:31:48;;;;;;;18.70;8.30;;;;;;;15.68;66.16;98390.84;5053931;28;20143;-74
2023/10/11 06:34:32;;;;;;;18.20;8.27;;;;;;;15.66;66.56;98387.59;5056322;28;20048;-74
2023/10/11 06:36:58;;;;;;;17.92;7.68;;;;;;;15.72;66.26;98389.22;5042195;28;20135;-73
2023/10/11 06:42:13;;;;;;;19.08;8.98;;;;;;;15.70;66.36;98397.63;5052972;28;20037;-72
2023/10/11 06:44:39;;;;;;;17.92;8.27;;;;;;;15.69;66.29;98392.47;5036925;28;20107;-73
2023/10/11 06:47:05;;;;;;;18.30;8.65;;;;;;;15.72;66.57;98402.78;5072739;28;20082;-72
2023/10/11 06:49:32;;;;;;;16.17;7.95;;;;;;;15.67;66.86;98411.75;5054819;28;20036;-73
2023/10/11 06:52:01;;;;;;;19.90;7.90;;;;;;;15.59;66.84;98397.91;5052627;28;20033;-73
2023/10/11 06:54:32;;;;;;;15.35;7.38;;;;;;;15.71;66.70;98417.44;5035920;28;20036;-73
2023/10/11 06:56:57;;;;;;;19.00;8.70;;;;;;;15.64;66.71;98395.16;5056890;28;20396;-73
2023/10/11 06:59:23;;;;;;;15.77;8.10;;;;;;;15.75;66.61;98408.47;5055156;28;20021;-73
2023/10/11 07:01:48;;;;;;;16.80;7.88;;;;;;;15.71;66.49;98387.56;5055483;28;20036;-72
2023/10/11 07:04:18;;;;;;;15.50;8.05;;;;;;;15.82;66.41;98394.66;5069760;28;20052;-73
2023/10/11 07:06:46;;;;;;;17.00;7.30;;;;;;;15.93;66.18;98395.44;5061122;28;20044;-73
2023/10/11 07:09:20;;;;;;;19.77;7.72;;;;;;;16.11;66.03;98411.97;5047673;28;20029;-73
2023/10/11 07:14:30;;;;;;;18.25;7.53;;;;;;;16.25;65.66;98412.22;5046952;28;20044;-73
2023/10/11 07:16:55;;;;;;;16.52;6.90;;;;;;;16.32;65.42;98419.00;5053487;28;20127;-74
2023/10/11 07:19:20;;;;;;;14.32;7.28;;;;;;;16.32;65.07;98402.69;5035527;28;20116;-73
2023/10/11 07:24:45;;;;;;;16.33;6.95;;;;;;;16.47;64.61;98404.56;5054512;28;20103;-74
2023/10/11 07:27:12;;;;;;;18.73;7.32;;;;;;;16.54;64.17;98411.38;5055667;28;20511;-73
2023/10/11 07:29:42;;;;;;;15.00;6.95;;;;;;;16.62;64.03;98403.72;5052820;28;20090;-74
2023/10/11 07:32:11;;;;;;;16.48;7.28;;;;;;;16.68;63.85;98395.25;5038957;28;20106;-73
2023/10/11 07:34:39;;;;;;;14.90;7.15;;;;;;;16.78;63.79;98405.28;5067221;28;20025;-74
2023/10/11 07:37:05;;;;;;;16.70;7.50;;;;;;;16.84;63.47;98415.03;5055133;28;20029;-73
2023/10/11 07:39:33;;;;;;;15.85;7.03;;;;;;;16.92;63.05;98412.53;5072524;28;20377;-74
2023/10/11 07:42:09;;;;;;;16.85;6.90;;;;;;;17.03;63.00;98425.03;5051409;28;20040;-73
2023/10/11 07:44:36;;;;;;;;;;;;;;;16.89;63.51;98417.75;5035879;28;20123;-72
2023/10/11 07:47:03;;;;;;;14.18;6.53;;;;;;;17.14;63.03;98425.75;5055124;28;20072;-73
2023/10/11 07:49:37;;;;;;;16.13;7.20;;;;;;;17.07;62.81;98404.31;5049633;28;20028;-74
2023/10/11 07:52:07;;;;;;;11.82;6.85;;;;;;;17.07;63.04;98392.59;5055875;28;20032;-74
2023/10/11 07:54:33;;;;;;;16.85;7.40;;;;;;;17.29;63.27;98409.34;5054514;28;20052;-73
2023/10/11 07:57:00;;;;;;;16.75;7.25;;;;;;;17.31;62.65;98415.31;5051310;28;20545;-76
2023/10/11 07:59:26;;;;;;;15.20;7.03;;;;;;;17.49;62.22;98416.53;5052539;28;20382;-73
2023/10/11 08:01:56;;;;;;;12.18;6.57;;;;;;;17.56;62.23;98428.78;5051438;28;20025;-73
2023/10/11 08:04:27;;;;;;;15.55;7.10;;;;;;;17.53;61.86;98413.00;5049443;28;20043;-72
2023/10/11 08:06:59;;;;;;;15.27;6.50;;;;;;;17.60;61.64;98424.38;5042330;28;20036;-73
2023/10/11 08:09:26;;;;;;;14.45;7.63;;;;;;;17.66;61.65;98417.00;5033982;28;20033;-73
2023/10/11 08:11:59;;;;;;;14.68;6.78;;;;;;;17.78;61.51;98431.88;5064631;28;20043;-72
2023/10/11 08:14:32;;;;;;;13.32;7.00;;;;;;;17.87;61.19;98426.63;5055432;28;20048;-73
2023/10/11 08:16:59;;;;;;;14.70;6.95;;;;;;;17.84;61.20;98417.13;5054780;28;20040;-73
2023/10/11 08:19:24;;;;;;;14.73;6.82;;;;;;;17.93;60.78;98418.13;5071690;28;20017;-73
2023/10/11 08:21:54;;;;;;;14.18;6.50;;;;;;;18.07;60.67;98428.34;5054052;28;20485;-73
2023/10/11 08:24:25;;;;;;;16.55;6.68;;;;;;;18.12;60.20;98414.69;5072036;28;20047;-74
2023/10/11 08:26:54;;;;;;;14.43;6.82;;;;;;;18.22;60.42;98420.03;5071322;28;20572;-73
2023/10/11 08:29:29;;;;;;;15.50;6.97;;;;;;;18.23;60.40;98410.75;5053610;28;20025;-73
2023/10/11 08:31:58;;;;;;;18.17;7.38;;;;;;;18.36;60.01;98421.00;5055306;28;20032;-73
2023/10/11 08:34:25;;;;;;;13.13;6.90;;;;;;;18.42;59.99;98415.19;5037288;28;20043;-75
2023/10/11 08:36:54;;;;;;;12.90;6.57;;;;;;;18.42;59.83;98398.00;5071443;28;20044;-75
2023/10/11 08:39:21;;;;;;;15.85;6.68;;;;;;;18.56;59.52;98404.41;5053801;28;20150;-75
2023/10/11 08:41:47;;;;;;;12.70;6.70;;;;;;;18.66;58.88;98420.66;5053785;28;20040;-75
2023/10/11 08:44:20;;;;;;;12.63;6.55;;;;;;;18.67;58.72;98413.31;5038197;28;20027;-73
2023/10/11 08:46:48;;;;;;;17.73;7.00;;;;;;;18.64;58.49;98390.16;5055054;28;20061;-75
2023/10/11 08:49:14;;;;;;;16.10;6.85;;;;;;;18.82;58.66;98419.38;5033636;28;20159;-75
2023/10/11 08:51:44;;;;;;;13.43;6.55;;;;;;;18.90;58.47;98426.13;5050507;28;20040;-75
2023/10/11 08:54:16;;;;;;;14.95;6.55;;;;;;;18.94;58.36;98417.03;5046580;28;20082;-76
2023/10/11 08:56:48;;;;;;;17.83;6.45;;;;;;;19.05;58.39;98423.16;5050004;28;20076;-76
2023/10/11 08:59:15;;;;;;;15.57;6.30;;;;;;;19.12;58.33;98427.16;5051734;28;20488;-76
2023/10/11 09:01:45;;;;;;;14.82;6.45;;;;;;;19.14;57.99;98410.47;5047765;28;20025;-74
2023/10/11 09:04:12;;;;;;;19.92;7.30;;;;;;;19.27;57.65;98429.72;5051077;28;20066;-76
2023/10/11 09:06:41;;;;;;;14.43;6.82;;;;;;;19.35;57.78;98419.22;5050177;28;20028;-74
2023/10/11 09:09:14;;;;;;;17.33;7.20;;;;;;;19.29;57.01;98413.84;5047003;28;20040;-74
2023/10/11 09:11:52;;;;;;;15.82;7.50;;;;;;;19.24;57.24;98394.78;5045063;28;20041;-77
2023/10/11 09:14:24;;;;;;;12.73;6.35;;;;;;;19.53;56.91;98418.44;5052290;28;20548;-75
2023/10/11 09:17:02;;;;;;;12.18;6.82;;;;;;;19.50;57.23;98410.81;5053806;28;20150;-74
2023/10/11 09:19:28;;;;;;;14.80;6.35;;;;;;;19.60;55.94;98418.88;5042417;28;20115;-76
2023/10/11 09:22:04;;;;;;;12.20;6.00;;;;;;;19.54;55.99;98409.94;5046781;28;20163;-76
2023/10/11 09:24:38;;;;;;;14.07;6.57;;;;;;;19.62;56.40;98405.72;5048716;28;20029;-75
2023/10/11 09:29:43;;;;;;;18.75;6.78;;;;;;;19.73;56.71;98385.31;5034423;28;20045;-74
2023/10/11 09:32:09;;;;;;;14.02;6.32;;;;;;;19.88;56.85;98393.25;5035376;28;20391;-75
2023/10/11 09:34:41;;;;;;;11.75;6.00;;;;;;;19.97;56.93;98391.47;5050111;28;20370;-76
2023/10/11 09:37:13;;;;;;;15.98;6.28;;;;;;;19.95;56.53;98371.81;5051608;28;20378;-76
2023/10/11 09:39:42;;;;;;;14.27;6.97;;;;;;;20.09;56.82;98389.06;5052724;28;20057;-76
2023/10/11 09:42:11;;;;;;;15.38;6.43;;;;;;;20.20;56.44;98401.44;5036931;28;20021;-75
2023/10/11 09:44:40;;;;;;;17.13;7.07;;;;;;;20.24;56.39;98416.16;5051991;28;20063;-76
2023/10/11 09:47:17;;;;;;;15.32;6.45;;;;;;;20.30;56.53;98417.69;5054344;28;20660;-76
2023/10/11 09:49:44;;;;;;;16.27;7.32;;;;;;;20.31;55.95;98413.00;5071285;28;20036;-76
2023/10/11 09:52:10;;;;;;;16.80;6.38;;;;;;;20.43;55.50;98416.88;5056814;28;20103;-75
2023/10/11 09:54:37;;;;;;;15.13;6.68;;;;;;;20.48;56.07;98430.47;5057185;28;20102;-76
2023/10/11 09:57:24;;;;;;;22.60;7.60;;;;;;;20.57;55.40;98434.13;5040350;28;20112;-75
2023/10/11 10:00:03;;;;;;;15.02;6.10;;;;;;;20.60;56.53;98410.81;5074403;28;20071;-75
2023/10/11 10:02:35;;;;;;;14.15;6.38;;;;;;;20.64;55.40;98412.63;5057162;28;20501;-74
2023/10/11 10:05:05;;;;;;;14.95;6.68;;;;;;;20.79;55.49;98427.13;5056725;28;20040;-75
2023/10/11 10:10:06;;;;;;;15.07;6.63;;;;;;;21.00;55.07;98425.59;5040254;28;20090;-76
2023/10/11 10:12:40;;;;;;;15.80;6.38;;;;;;;21.06;54.44;98422.47;5074396;28;20653;-75
2023/10/11 10:15:20;;;;;;;16.33;6.80;;;;;;;21.15;54.73;98422.56;5069226;28;20036;-76
2023/10/11 10:18:00;;;;;;;16.40;6.97;;;;;;;21.17;54.81;98420.31;5040085;28;20036;-75
2023/10/11 10:20:32;;;;;;;18.67;6.63;;;;;;;21.24;54.92;98423.44;5056202;28;20047;-76
2023/10/11 10:23:16;;;;;;;18.33;5.82;;;;;;;21.31;54.48;98413.69;5056022;28;20071;-76
2023/10/11 10:25:47;;;;;;;18.88;5.95;;;;;;;21.37;53.90;98408.91;5056182;28;20123;-76
2023/10/11 10:28:39;;;;;;;13.55;6.00;;;;;;;21.50;54.46;98416.28;5055643;28;20033;-74
2023/10/11 10:31:09;;;;;;;12.80;5.97;;;;;;;21.59;54.46;98417.16;5074097;28;20036;-76
2023/10/11 10:33:39;;;;;;;15.82;6.45;;;;;;;21.68;54.89;98415.28;5056171;28;20040;-76
2023/10/11 10:36:29;;;;;;;13.10;5.95;;;;;;;21.80;53.20;98422.94;5073994;28;20101;-76
2023/10/11 10:39:00;;;;;;;15.75;6.07;;;;;;;21.81;52.81;98419.91;5055623;28;20048;-76
2023/10/11 10:41:26;;;;;;;15.88;6.18;;;;;;;21.84;52.97;98402.84;5056021;28;20492;-76
2023/10/11 10:44:10;;;;;;;10.63;5.68;;;;;;;22.00;52.00;98412.34;5043022;28;20029;-75
2023/10/11 10:46:37;;;;;;;13.05;6.25;;;;;;;22.06;52.18;98414.94;5035804;28;20036;-76
2023/10/11 10:49:03;;;;;;;14.95;6.25;;;;;;;22.11;52.74;98395.59;5043683;28;20021;-74
2023/10/11 10:51:35;;;;;;;13.98;5.57;;;;;;;22.21;52.89;98389.84;5053455;28;20040;-76
2023/10/11 10:54:04;;;;;;;14.55;5.80;;;;;;;22.46;52.65;98389.16;5056064;28;20040;-74
2023/10/11 10:56:29;;;;;;;14.05;6.00;;;;;;;22.50;52.52;98370.91;5042642;28;20163;-74
2023/10/11 10:59:12;;;;;;;9.23;5.55;;;;;;;22.63;50.99;98381.03;5048795;28;20506;-75
2023/10/11 11:01:40;;;;;;;16.45;5.82;;;;;;;22.64;50.92;98377.97;5050253;28;20037;-74
2023/10/11 11:04:09;;;;;;;14.05;5.82;;;;;;;22.62;50.56;98365.66;5060663;28;20063;-75
2023/10/11 11:06:45;;;;;;;19.67;6.10;;;;;;;22.86;50.66;98377.06;5052910;28;20048;-76
2023/10/11 11:09:14;;;;;;;17.33;6.10;;;;;;;22.85;50.67;98356.19;5054341;28;20036;-76
2023/10/11 11:11:43;;;;;;;17.35;6.20;;;;;;;22.99;50.19;98351.38;5053194;28;20025;-76
2023/10/11 11:14:10;;;;;;;13.27;5.95;;;;;;;22.97;49.24;98342.66;5055022;28;20553;-74
2023/10/11 11:16:39;;;;;;;13.68;6.00;;;;;;;23.16;49.67;98351.41;5047559;28;20400;-74
2023/10/11 11:19:16;;;;;;;16.10;6.05;;;;;;;23.23;49.67;98349.00;5055560;28;20044;-74
2023/10/11 11:21:46;;;;;;;16.50;5.68;;;;;;;23.38;49.69;98354.00;5052988;28;20032;-74
2023/10/11 11:24:18;;;;;;;12.05;5.78;;;;;;;23.50;50.26;98330.59;5051962;28;20040;-74
2023/10/11 11:26:44;;;;;;;12.48;5.55;;;;;;;23.58;49.18;98329.75;5051121;28;20029;-74
2023/10/11 11:29:16;;;;;;;15.98;5.70;;;;;;;23.74;49.30;98341.84;5051430;28;20500;-74
2023/10/11 11:31:52;;;;;;;13.18;5.70;;;;;;;23.79;49.19;98336.19;5052930;28;20119;-74
2023/10/11 11:34:27;;;;;;;16.90;5.78;;;;;;;23.78;48.76;98312.59;5073191;28;20036;-73
2023/10/11 11:36:57;;;;;;;14.87;5.67;;;;;;;23.94;48.63;98321.91;5051660;28;20041;-74
2023/10/11 11:39:36;;;;;;;16.70;6.35;;;;;;;24.24;48.62;98315.38;5047867;28;20040;-74
2023/10/11 11:42:24;;;;;;;13.45;6.00;;;;;;;25.51;45.66;98320.38;5051516;28;20029;-74
2023/10/11 11:44:50;;;;;;;14.80;5.80;;;;;;;26.82;42.30;98309.13;5056266;28;20504;-74
2023/10/11 11:47:22;;;;;;;15.07;5.68;;;;;;;27.82;41.85;98292.31;5051536;28;20082;-74
2023/10/11 11:49:47;;;;;;;16.25;6.25;;;;;;;28.84;39.95;98293.34;5054137;28;20033;-75
2023/10/11 11:52:16;;;;;;;12.95;5.40;;;;;;;29.46;39.14;98303.44;5054479;28;20051;-74
2023/10/11 11:54:43;;;;;;;13.43;5.53;;;;;;;30.04;37.13;98283.56;5051455;28;20044;-74
2023/10/11 11:57:09;;;;;;;14.93;5.63;;;;;;;30.34;36.19;98289.28;5043589;28;20456;-74
2023/10/11 11:59:34;;;;;;;13.45;5.93;;;;;;;31.01;35.70;98279.22;5036699;28;20020;-75
2023/10/11 12:02:00;;;;;;;16.85;6.05;;;;;;;31.28;34.38;98271.63;5072463;28;20507;-75
2023/10/11 12:04:29;;;;;;;12.68;5.22;;;;;;;31.65;34.42;98263.34;5072399;28;20127;-75
2023/10/11 12:06:57;;;;;;;15.07;5.68;;;;;;;32.25;33.17;98266.75;5054765;28;20078;-74
2023/10/11 12:09:24;;;;;;;13.13;5.20;;;;;;;32.58;33.19;98253.47;5037300;28;20032;-74
2023/10/11 12:11:50;;;;;;;13.88;5.72;;;;;;;32.64;32.62;98265.91;5054388;28;20032;-75
2023/10/11 12:14:16;;;;;;;15.70;5.40;;;;;;;31.20;33.73;98259.56;5072185;28;20040;-75
2023/10/11 12:16:42;;;;;;;17.30;5.93;;;;;;;30.15;35.38;98266.28;5054140;28;20098;-75
2023/10/11 12:19:13;;;;;;;11.35;5.30;;;;;;;29.29;35.94;98271.41;5054017;28;20106;-75
2023/10/11 12:21:39;;;;;;;9.93;4.50;;;;;;;28.48;36.79;98253.69;5044383;28;20041;-75
2023/10/11 12:24:11;;;;;;;13.32;4.43;;;;;;;28.02;37.12;98262.81;5058936;28;20693;-75
2023/10/11 12:26:42;;;;;;;12.65;4.38;;;;;;;27.35;37.54;98250.69;5052136;28;20039;-74
2023/10/11 12:29:09;;;;;;;12.43;4.32;;;;;;;27.03;38.69;98260.03;5031323;28;20044;-74
2023/10/11 12:31:38;;;;;;;14.32;5.30;;;;;;;26.74;38.35;98254.78;5052391;28;20374;-74
2023/10/11 12:34:10;;;;;;;11.38;4.88;;;;;;;27.40;37.51;98257.94;5054083;28;20129;-74
2023/10/11 12:36:39;;;;;;;16.90;5.28;;;;;;;28.73;36.22;98255.06;5053542;28;20496;-74
2023/10/11 12:39:20;;;;;;;15.50;5.43;;;;;;;30.24;34.41;98259.31;5037110;28;20020;-74
2023/10/11 12:41:51;;;;;;;10.20;4.43;;;;;;;31.16;32.56;98244.81;5069211;28;20037;-74
2023/10/11 12:44:17;;;;;;;12.40;5.35;;;;;;;31.99;31.55;98245.41;5051741;28;20429;-76